Time;durP1;ratioP1;P1;durP2;ratioP2;P2;SDS_P1;SDS_P2;PMS_P1;PMS_P2;Temp;Humidity;BMP_temperature;BMP_pressure;BME280_temperature;BME280_humidity;BME280_pressure;Samples;Min_cycle;Max_cycle;Signal;HPM_P1;HPM_P2
2023/04/06 02:01:24;;;;;;;16.10;14.47;;;0.60;99.90;;;;;;5516586;23;20496;-77
2023/04/06 02:03:56;;;;;;;15.70;14.13;;;0.60;99.90;;;;;;4884841;29;20468;-76
2023/04/06 02:06:24;;;;;;;15.37;13.77;;;0.60;99.90;;;;;;4882856;29;20518;-78
2023/04/06 02:08:51;;;;;;;15.10;13.60;;;0.60;99.90;;;;;;4882228;29;20880;-77
2023/04/06 02:11:18;;;;;;;15.23;13.80;;;0.60;99.90;;;;;;4871730;29;20476;-77
2023/04/06 02:13:49;;;;;;;14.70;13.30;;;0.60;99.90;;;;;;4866223;29;20488;-77
2023/04/06 02:16:16;;;;;;;15.10;13.60;;;0.60;99.90;;;;;;4873705;29;20844;-77
2023/04/06 02:18:46;;;;;;;14.37;13.17;;;0.60;99.90;;;;;;4867709;29;20511;-77
2023/04/06 02:21:13;;;;;;;17.00;14.97;;;0.50;99.90;;;;;;4870177;29;20549;-78
2023/04/06 02:23:40;;;;;;;14.97;13.67;;;0.50;99.90;;;;;;4863794;29;20556;-77
2023/04/06 02:26:07;;;;;;;15.60;14.10;;;0.50;99.90;;;;;;4864554;29;20448;-78
2023/04/06 02:28:34;;;;;;;15.37;13.97;;;0.40;99.90;;;;;;4861789;29;20471;-77
2023/04/06 02:31:01;;;;;;;15.57;14.13;;;0.40;99.90;;;;;;4864593;29;20547;-77
2023/04/06 02:33:28;;;;;;;15.27;13.90;;;0.40;99.90;;;;;;4867556;29;20445;-77
2023/04/06 02:35:56;;;;;;;16.57;14.87;;;0.40;99.90;;;;;;4867197;29;20476;-77
2023/04/06 02:38:23;;;;;;;15.80;14.27;;;0.40;99.90;;;;;;4867066;29;20975;-77
2023/04/06 02:40:52;;;;;;;16.30;14.60;;;0.30;99.90;;;;;;4862874;29;20871;-79
2023/04/06 02:43:22;;;;;;;15.47;14.00;;;0.30;99.90;;;;;;4864261;29;20507;-77
2023/04/06 02:45:54;;;;;;;16.97;15.03;;;0.40;99.90;;;;;;4867013;29;20872;-77
2023/04/06 02:48:22;;;;;;;16.93;15.13;;;0.30;99.90;;;;;;4868290;29;20486;-78
2023/04/06 02:50:49;;;;;;;16.23;14.53;;;0.30;99.90;;;;;;4870367;29;20496;-80
2023/04/06 02:53:17;;;;;;;16.20;14.60;;;0.20;99.90;;;;;;4902510;29;20466;-79
2023/04/06 02:55:45;;;;;;;15.53;14.13;;;0.20;99.90;;;;;;4876874;29;20477;-80
2023/04/06 02:58:11;;;;;;;20.53;15.70;;;0.20;99.90;;;;;;4879420;29;20463;-79
2023/04/06 03:00:45;;;;;;;16.43;14.73;;;0.20;99.90;;;;;;4879812;29;20493;-79
2023/04/06 03:03:12;;;;;;;15.07;13.77;;;0.20;99.90;;;;;;4880427;29;20520;-79
2023/04/06 03:05:40;;;;;;;16.27;14.53;;;0.20;99.90;;;;;;4880403;29;20551;-79
2023/04/06 03:08:07;;;;;;;15.33;13.80;;;0.20;99.90;;;;;;4879775;29;20534;-79
2023/04/06 03:10:44;;;;;;;15.30;13.80;;;0.20;99.90;;;;;;4880311;29;20475;-79
2023/04/06 03:13:11;;;;;;;18.03;14.77;;;0.10;99.90;;;;;;4887218;29;20452;-79
2023/04/06 03:15:51;;;;;;;15.97;14.43;;;0.10;99.90;;;;;;4895231;29;20478;-80
2023/04/06 03:18:23;;;;;;;15.40;14.00;;;0.10;99.90;;;;;;4877744;29;20455;-82
2023/04/06 03:20:51;;;;;;;16.13;14.53;;;0.00;99.90;;;;;;4892726;29;20487;-80
2023/04/06 03:23:20;;;;;;;16.37;14.67;;;0.00;99.90;;;;;;4873374;29;20456;-79
2023/04/06 03:25:49;;;;;;;16.07;14.43;;;0.00;99.90;;;;;;4866238;29;20472;-76
2023/04/06 03:28:19;;;;;;;17.90;14.77;;;-0.10;99.90;;;;;;4875879;29;20539;-79
2023/04/06 03:30:53;;;;;;;19.17;15.83;;;-0.10;99.90;;;;;;4883823;29;20482;-78
2023/04/06 03:33:36;;;;;;;17.30;15.53;;;0.00;99.90;;;;;;4870995;29;20461;-79
2023/04/06 03:36:03;;;;;;;16.80;15.17;;;0.00;99.90;;;;;;4888527;29;20553;-77
2023/04/06 03:38:32;;;;;;;16.77;15.20;;;0.00;99.90;;;;;;4872917;29;20466;-78
2023/04/06 03:41:00;;;;;;;17.20;15.40;;;0.00;99.90;;;;;;4870316;29;21049;-77
2023/04/06 03:43:28;;;;;;;16.50;14.90;;;-0.10;99.90;;;;;;4869079;29;20454;-78
2023/04/06 03:45:55;;;;;;;16.57;15.07;;;-0.10;99.90;;;;;;4870731;29;20454;-78
2023/04/06 03:48:22;;;;;;;15.30;14.00;;;-0.10;99.90;;;;;;4866064;29;20509;-77
2023/04/06 03:50:49;;;;;;;16.10;14.60;;;-0.10;99.90;;;;;;4869834;29;20488;-77
2023/04/06 03:53:16;;;;;;;18.10;15.37;;;-0.10;99.90;;;;;;4863992;29;20478;-77
2023/04/06 03:55:42;;;;;;;16.33;14.80;;;-0.10;99.90;;;;;;4865940;29;20484;-76
2023/04/06 03:58:10;;;;;;;16.10;14.70;;;-0.10;99.90;;;;;;4865999;29;20463;-77
2023/04/06 04:00:38;;;;;;;16.63;14.93;;;0.00;99.90;;;;;;4865976;29;20524;-77
2023/04/06 04:03:05;;;;;;;17.93;16.03;;;-0.10;99.90;;;;;;4867057;29;20495;-76
2023/04/06 04:05:32;;;;;;;18.07;16.17;;;-0.20;99.90;;;;;;4866571;29;20472;-76
2023/04/06 04:07:58;;;;;;;17.13;15.43;;;-0.20;99.90;;;;;;4864571;29;21077;-76
2023/04/06 04:10:27;;;;;;;15.90;14.33;;;-0.20;99.90;;;;;;4867642;29;20474;-76
2023/04/06 04:12:54;;;;;;;16.93;15.33;;;-0.10;99.90;;;;;;4863969;29;20459;-77
2023/04/06 04:15:22;;;;;;;15.87;14.37;;;-0.10;99.90;;;;;;4864577;29;20979;-77
2023/04/06 04:17:50;;;;;;;16.17;14.57;;;-0.10;99.90;;;;;;4865440;29;20536;-77
2023/04/06 04:20:17;;;;;;;16.00;14.50;;;-0.20;99.90;;;;;;4865935;29;20459;-77
2023/04/06 04:22:44;;;;;;;16.43;14.93;;;-0.10;99.90;;;;;;4864224;29;21072;-77
2023/04/06 04:25:11;;;;;;;16.23;14.67;;;-0.20;99.90;;;;;;4865463;29;20454;-77
2023/04/06 04:27:44;;;;;;;17.33;15.60;;;-0.20;99.90;;;;;;4860861;29;20492;-77
2023/04/06 04:30:11;;;;;;;16.40;14.90;;;-0.20;99.90;;;;;;4862818;29;20473;-76
2023/04/06 04:32:39;;;;;;;16.63;15.07;;;-0.30;99.90;;;;;;4859579;29;21014;-77
2023/04/06 04:35:09;;;;;;;16.43;14.83;;;-0.30;99.90;;;;;;4864667;29;20895;-76
2023/04/06 04:37:41;;;;;;;16.60;15.07;;;-0.30;99.90;;;;;;4872430;29;20584;-77
2023/04/06 04:40:09;;;;;;;18.07;16.13;;;-0.30;99.90;;;;;;4865962;29;20451;-76
2023/04/06 04:42:46;;;;;;;16.73;15.00;;;-0.20;99.90;;;;;;4863987;29;20491;-77
2023/04/06 04:45:20;;;;;;;18.53;16.50;;;-0.30;99.90;;;;;;4864669;29;20451;-77
2023/04/06 04:47:49;;;;;;;18.53;16.67;;;-0.20;99.90;;;;;;4861650;29;20970;-76
2023/04/06 04:50:17;;;;;;;19.67;17.70;;;-0.30;99.90;;;;;;4862582;29;21015;-77
2023/04/06 04:52:46;;;;;;;16.80;15.20;;;-0.30;99.90;;;;;;4865371;29;20578;-76
2023/04/06 04:55:20;;;;;;;19.70;16.60;;;-0.30;99.90;;;;;;4867170;29;20542;-77
2023/04/06 04:57:51;;;;;;;19.73;16.53;;;-0.30;99.90;;;;;;4864556;29;20485;-77
2023/04/06 05:00:22;;;;;;;18.27;16.47;;;-0.20;99.90;;;;;;4871710;29;20487;-77
2023/04/06 05:02:51;;;;;;;18.33;16.53;;;-0.30;99.90;;;;;;4877839;29;20460;-77
2023/04/06 05:05:21;;;;;;;18.43;16.50;;;-0.20;99.90;;;;;;4877660;29;20454;-77
2023/04/06 05:07:50;;;;;;;18.83;16.93;;;-0.30;99.90;;;;;;4877701;29;20534;-77
2023/04/06 05:10:27;;;;;;;18.00;16.30;;;-0.20;99.90;;;;;;4875304;29;20476;-77
2023/04/06 05:12:58;;;;;;;18.67;16.67;;;-0.20;99.90;;;;;;4863472;29;20464;-76
2023/04/06 05:15:26;;;;;;;17.93;16.07;;;-0.20;99.90;;;;;;4863961;29;20459;-77
2023/04/06 05:18:00;;;;;;;19.73;16.83;;;-0.10;99.90;;;;;;4863142;29;20490;-77
2023/04/06 05:20:32;;;;;;;18.60;16.33;;;-0.10;99.90;;;;;;4863813;29;20444;-76
2023/04/06 05:22:59;;;;;;;17.93;16.13;;;0.00;99.90;;;;;;4863504;29;20461;-77
2023/04/06 05:25:26;;;;;;;18.30;16.40;;;0.10;99.90;;;;;;4867603;29;20441;-76
2023/04/06 05:27:57;;;;;;;20.17;16.93;;;0.20;99.90;;;;;;4866918;29;20461;-76
2023/04/06 05:30:35;;;;;;;18.50;16.53;;;0.30;99.90;;;;;;4863426;29;20465;-76
2023/04/06 05:33:03;;;;;;;18.77;16.87;;;0.30;99.90;;;;;;4864367;29;20846;-77
2023/04/06 05:35:41;;;;;;;17.87;16.20;;;0.40;99.90;;;;;;4870274;29;20465;-79
2023/04/06 05:38:12;;;;;;;17.00;15.37;;;0.60;99.90;;;;;;4870486;29;20467;-77
2023/04/06 05:40:40;;;;;;;17.67;15.97;;;0.80;99.90;;;;;;4863198;29;20462;-76
2023/04/06 05:43:10;;;;;;;18.40;16.67;;;1.20;99.90;;;;;;4864056;29;20472;-77
2023/04/06 05:45:41;;;;;;;17.87;16.27;;;1.60;99.90;;;;;;4869255;29;20462;-77
2023/04/06 05:48:09;;;;;;;18.57;16.67;;;2.00;99.90;;;;;;4864469;29;20847;-77
2023/04/06 05:50:35;;;;;;;15.97;14.50;;;2.40;99.90;;;;;;4867684;29;20882;-77
2023/04/06 05:53:03;;;;;;;17.13;15.50;;;2.70;99.90;;;;;;4868661;29;20590;-77
2023/04/06 05:55:36;;;;;;;17.90;16.10;;;2.90;99.90;;;;;;4864744;29;20213;-77
2023/04/06 05:58:17;;;;;;;17.43;15.83;;;3.10;99.90;;;;;;4865307;29;20300;-77
2023/04/06 06:00:45;;;;;;;16.00;14.53;;;3.30;99.90;;;;;;4865785;29;20495;-77
2023/04/06 06:03:15;;;;;;;16.77;15.27;;;3.60;99.90;;;;;;4866873;29;20197;-77
2023/04/06 06:05:47;;;;;;;16.03;14.53;;;3.80;99.90;;;;;;4866930;29;20240;-77
2023/04/06 06:08:20;;;;;;;17.00;15.20;;;4.00;99.90;;;;;;4866559;29;20198;-78
2023/04/06 06:10:49;;;;;;;17.30;15.57;;;4.00;99.90;;;;;;4862781;29;20696;-76
2023/04/06 06:13:17;;;;;;;18.37;16.57;;;4.20;99.90;;;;;;4863252;29;20210;-76
2023/04/06 06:15:44;;;;;;;16.83;15.23;;;4.20;99.90;;;;;;4867125;29;20208;-76
2023/04/06 06:18:11;;;;;;;15.63;14.23;;;4.40;99.90;;;;;;4867583;29;20253;-77
2023/04/06 06:20:39;;;;;;;15.60;14.00;;;4.40;99.90;;;;;;4863968;29;20254;-78
2023/04/06 06:23:07;;;;;;;17.80;15.03;;;4.50;99.90;;;;;;4865054;29;20210;-77
2023/04/06 06:25:33;;;;;;;17.30;15.50;;;4.70;99.90;;;;;;4865697;29;20235;-77
2023/04/06 06:28:00;;;;;;;19.67;15.70;;;4.70;99.90;;;;;;4865967;29;20193;-77
2023/04/06 06:30:30;;;;;;;16.10;14.37;;;4.80;99.90;;;;;;4870938;29;20217;-77
2023/04/06 06:32:57;;;;;;;17.97;16.03;;;4.80;99.90;;;;;;4867697;29;20210;-77
2023/04/06 06:35:24;;;;;;;18.73;15.87;;;4.90;99.90;;;;;;4862423;29;20206;-77
2023/04/06 06:37:53;;;;;;;17.80;16.10;;;5.00;99.90;;;;;;4865901;29;20663;-76
2023/04/06 06:40:23;;;;;;;16.87;15.07;;;5.10;99.90;;;;;;4866827;29;20213;-77
2023/04/06 06:42:52;;;;;;;16.93;15.23;;;5.40;99.90;;;;;;4867160;29;20200;-77
2023/04/06 06:45:31;;;;;;;15.30;13.90;;;5.50;99.90;;;;;;4862797;29;20288;-77
2023/04/06 06:47:58;;;;;;;16.47;14.97;;;5.70;99.90;;;;;;4865159;29;20635;-78
2023/04/06 06:50:25;;;;;;;16.33;14.83;;;5.90;99.90;;;;;;4866723;29;20291;-77
2023/04/06 06:52:53;;;;;;;15.93;14.43;;;6.10;99.90;;;;;;4868109;29;20214;-79
2023/04/06 06:55:20;;;;;;;15.93;14.53;;;6.30;99.90;;;;;;4871446;29;20226;-77
2023/04/06 06:57:47;;;;;;;17.63;14.67;;;6.30;99.90;;;;;;4867093;29;20231;-77
2023/04/06 07:00:15;;;;;;;16.20;14.70;;;6.50;99.90;;;;;;4868578;29;20605;-77
2023/04/06 07:02:43;;;;;;;16.10;14.57;;;6.50;99.90;;;;;;4869723;29;20271;-78
2023/04/06 07:05:10;;;;;;;15.63;14.23;;;6.70;99.90;;;;;;4870012;29;20227;-78
2023/04/06 07:07:37;;;;;;;15.20;13.80;;;6.80;99.90;;;;;;4867406;29;20288;-78
2023/04/06 07:10:06;;;;;;;16.57;14.97;;;6.90;99.90;;;;;;4865823;29;20723;-78
2023/04/06 07:12:33;;;;;;;15.47;14.03;;;7.00;99.90;;;;;;4863198;29;20226;-77
2023/04/06 07:15:00;;;;;;;15.90;13.90;;;7.10;99.90;;;;;;4874290;29;20256;-78
2023/04/06 07:17:27;;;;;;;15.83;14.03;;;7.20;99.90;;;;;;4870836;29;20708;-77
2023/04/06 07:19:54;;;;;;;14.60;13.23;;;7.50;99.90;;;;;;4870392;29;20198;-77
2023/04/06 07:22:21;;;;;;;14.80;13.30;;;7.80;99.90;;;;;;4865318;29;20225;-77
2023/04/06 07:24:47;;;;;;;14.90;13.60;;;8.00;99.90;;;;;;4865995;29;20604;-78
2023/04/06 07:27:16;;;;;;;15.43;14.07;;;8.40;99.90;;;;;;4866651;29;20253;-77
2023/04/06 07:29:43;;;;;;;15.73;14.43;;;8.90;99.90;;;;;;4863108;29;20764;-77
2023/04/06 07:32:11;;;;;;;16.30;14.80;;;9.20;99.90;;;;;;4865727;29;20305;-77
2023/04/06 07:34:38;;;;;;;16.37;14.97;;;9.50;99.90;;;;;;4868215;29;20210;-78
2023/04/06 07:37:05;;;;;;;14.63;13.23;;;9.70;99.90;;;;;;4869790;29;20316;-76
2023/04/06 07:39:33;;;;;;;14.83;13.53;;;10.10;99.90;;;;;;4866537;29;20194;-77
2023/04/06 07:42:00;;;;;;;14.33;13.03;;;10.40;99.90;;;;;;4866852;29;20223;-77
2023/04/06 07:44:28;;;;;;;15.63;14.23;;;10.80;99.90;;;;;;4867484;29;20198;-77
2023/04/06 07:46:55;;;;;;;14.63;13.33;;;11.00;99.90;;;;;;4864842;29;20192;-78
2023/04/06 07:49:23;;;;;;;15.03;13.60;;;11.20;99.90;;;;;;4864622;29;20199;-79
2023/04/06 07:51:50;;;;;;;14.70;13.40;;;11.50;99.90;;;;;;4868524;29;20703;-77
2023/04/06 07:54:17;;;;;;;13.63;12.23;;;11.70;99.90;;;;;;4869937;29;20260;-78
2023/04/06 07:56:45;;;;;;;13.00;11.87;;;11.90;99.90;;;;;;4871538;29;20281;-77
2023/04/06 07:59:13;;;;;;;12.27;10.97;;;12.10;99.90;;;;;;4877891;29;20257;-80
2023/04/06 08:01:41;;;;;;;11.47;10.27;;;12.20;99.90;;;;;;4870602;29;20274;-79
2023/04/06 08:04:08;;;;;;;12.90;11.60;;;12.20;99.90;;;;;;4879902;29;20209;-80
2023/04/06 08:06:36;;;;;;;11.67;10.50;;;12.20;99.90;;;;;;4874424;29;20202;-81
2023/04/06 08:09:03;;;;;;;13.20;12.00;;;12.20;99.90;;;;;;4876847;29;20631;-79
2023/04/06 08:11:29;;;;;;;14.90;13.50;;;12.30;99.90;;;;;;4873222;29;20300;-80
2023/04/06 08:13:57;;;;;;;14.00;12.87;;;12.50;99.90;;;;;;4866532;29;20212;-80
2023/04/06 08:16:24;;;;;;;14.10;12.60;;;12.70;99.90;;;;;;4873282;29;20571;-80
2023/04/06 08:18:52;;;;;;;15.17;12.47;;;12.70;99.90;;;;;;4868537;29;20218;-80
2023/04/06 08:21:19;;;;;;;14.30;12.90;;;12.90;99.90;;;;;;4869912;29;20282;-79
2023/04/06 08:23:46;;;;;;;13.17;11.97;;;13.00;99.90;;;;;;4869235;29;20202;-80
2023/04/06 08:26:13;;;;;;;14.50;13.13;;;13.10;99.90;;;;;;4869325;29;20208;-79
2023/04/06 08:28:39;;;;;;;13.63;12.33;;;12.60;99.90;;;;;;4870841;29;20210;-79
2023/04/06 08:31:07;;;;;;;14.50;13.20;;;12.90;99.90;;;;;;4872868;29;20260;-79
2023/04/06 08:33:36;;;;;;;13.67;12.47;;;13.00;99.90;;;;;;4871016;29;20673;-81
2023/04/06 08:36:10;;;;;;;13.37;12.07;;;13.10;99.90;;;;;;4874230;29;20701;-80
2023/04/06 08:38:37;;;;;;;15.03;10.80;;;13.50;99.90;;;;;;4868619;29;20217;-77
2023/04/06 08:41:09;;;;;;;12.77;11.17;;;13.40;99.90;;;;;;4866526;29;20228;-78
2023/04/06 08:43:42;;;;;;;11.90;10.60;;;13.50;99.90;;;;;;4869318;29;20236;-77
2023/04/06 08:46:09;;;;;;;13.80;12.47;;;13.60;99.90;;;;;;4874034;29;20199;-77
2023/04/06 08:48:37;;;;;;;11.87;10.67;;;13.40;99.90;;;;;;4865587;29;20286;-78
2023/04/06 08:51:05;;;;;;;10.13;9.13;;;13.70;99.90;;;;;;4864414;29;20237;-78
2023/04/06 08:53:33;;;;;;;13.70;10.27;;;14.00;99.90;;;;;;4863899;29;20208;-77
2023/04/06 08:56:01;;;;;;;11.27;9.80;;;14.20;97.80;;;;;;4865547;29;20227;-77
2023/04/06 08:58:29;;;;;;;9.63;8.03;;;14.60;96.10;;;;;;4866278;29;20285;-77
2023/04/06 09:00:56;;;;;;;9.37;8.37;;;14.70;96.50;;;;;;4868882;29;20588;-79
2023/04/06 09:03:25;;;;;;;8.57;7.33;;;14.70;95.80;;;;;;4866069;29;20687;-76
2023/04/06 09:05:52;;;;;;;10.43;8.00;;;14.90;95.30;;;;;;4874450;29;20265;-77
2023/04/06 09:08:18;;;;;;;10.70;8.10;;;15.10;95.40;;;;;;4878933;29;20198;-78
2023/04/06 09:10:47;;;;;;;10.23;7.80;;;14.90;95.20;;;;;;4879766;29;20221;-77
2023/04/06 09:13:13;;;;;;;9.37;7.00;;;15.40;94.50;;;;;;4880035;29;20253;-77
2023/04/06 09:15:40;;;;;;;10.63;9.53;;;15.50;94.50;;;;;;4877873;29;20613;-77
2023/04/06 09:18:08;;;;;;;12.47;7.83;;;15.10;94.30;;;;;;4863050;29;20225;-78
2023/04/06 09:20:34;;;;;;;9.33;7.87;;;15.30;94.00;;;;;;4863367;29;20630;-78
2023/04/06 09:23:01;;;;;;;10.53;7.57;;;15.40;93.80;;;;;;4869286;29;20679;-78
2023/04/06 09:25:29;;;;;;;9.60;8.43;;;15.40;93.70;;;;;;4871799;29;20206;-78
2023/04/06 09:28:02;;;;;;;9.47;8.33;;;15.30;92.80;;;;;;4868250;29;20225;-78
2023/04/06 09:30:29;;;;;;;9.47;7.50;;;15.00;93.50;;;;;;4863357;29;20201;-78
2023/04/06 09:32:57;;;;;;;9.17;7.93;;;15.20;93.70;;;;;;4864143;29;20209;-79
2023/04/06 09:35:26;;;;;;;11.37;9.37;;;15.50;93.40;;;;;;4866034;29;20583;-81
2023/04/06 09:37:53;;;;;;;9.47;8.47;;;15.10;92.90;;;;;;4866050;29;20281;-78
2023/04/06 09:40:21;;;;;;;10.63;9.07;;;15.30;92.70;;;;;;4867100;29;20213;-80
2023/04/06 09:42:51;;;;;;;12.07;8.43;;;15.30;91.00;;;;;;4867545;29;20694;-78
2023/04/06 09:45:20;;;;;;;9.60;8.13;;;15.10;91.10;;;;;;4874082;29;20220;-78
2023/04/06 09:47:47;;;;;;;10.40;8.50;;;14.80;92.50;;;;;;4876683;29;20209;-78
2023/04/06 09:50:16;;;;;;;9.97;8.70;;;15.10;93.60;;;;;;4874713;29;20899;-79
2023/04/06 09:52:48;;;;;;;10.27;7.70;;;15.00;93.50;;;;;;4876743;29;20276;-79
2023/04/06 09:55:21;;;;;;;9.73;6.80;;;15.30;93.10;;;;;;4868669;29;20273;-78
2023/04/06 09:57:56;;;;;;;9.00;6.90;;;15.60;92.60;;;;;;4876164;29;20202;-79
2023/04/06 10:00:27;;;;;;;8.47;6.90;;;15.80;90.00;;;;;;4866881;29;20207;-78
2023/04/06 10:02:59;;;;;;;8.13;7.33;;;15.90;90.80;;;;;;4866481;29;20258;-79
2023/04/06 10:05:34;;;;;;;12.40;11.13;;;15.90;89.80;;;;;;4868849;29;20292;-78
2023/04/06 10:08:06;;;;;;;12.97;11.67;;;15.50;89.50;;;;;;4881970;29;20223;-79
2023/04/06 10:10:33;;;;;;;14.50;13.10;;;15.40;90.80;;;;;;4862264;29;20564;-78
2023/04/06 10:12:59;;;;;;;12.20;11.20;;;15.20;90.00;;;;;;4867967;29;20228;-77
2023/04/06 10:15:29;;;;;;;12.93;11.67;;;15.20;91.30;;;;;;4868965;29;20329;-78
2023/04/06 10:17:56;;;;;;;13.27;12.10;;;15.40;90.50;;;;;;4870582;29;20231;-78
2023/04/06 10:20:28;;;;;;;12.10;11.00;;;15.20;90.40;;;;;;4864259;29;20289;-78
2023/04/06 10:23:02;;;;;;;13.03;11.83;;;15.10;90.80;;;;;;4867155;29;20292;-78
2023/04/06 10:25:29;;;;;;;13.87;12.67;;;15.00;90.70;;;;;;4868552;29;20227;-77
2023/04/06 10:28:06;;;;;;;14.40;13.10;;;15.00;90.70;;;;;;4864093;29;20211;-78
2023/04/06 10:30:35;;;;;;;12.60;11.50;;;14.90;90.20;;;;;;4868374;29;20688;-77
2023/04/06 10:33:13;;;;;;;12.33;11.33;;;14.90;90.40;;;;;;4862442;29;20688;-78
2023/04/06 10:35:39;;;;;;;9.60;8.77;;;14.80;89.80;;;;;;4864172;29;20202;-78
2023/04/06 10:38:07;;;;;;;9.10;8.20;;;14.70;89.60;;;;;;4866297;29;20309;-78
2023/04/06 10:40:37;;;;;;;13.00;11.90;;;14.70;90.30;;;;;;4868911;29;20291;-79
2023/04/06 10:43:11;;;;;;;12.13;11.00;;;14.70;90.10;;;;;;4868715;29;20238;-78
2023/04/06 10:45:40;;;;;;;11.53;10.53;;;14.70;89.20;;;;;;4877327;29;20278;-78
2023/04/06 10:48:14;;;;;;;12.27;11.17;;;14.60;89.40;;;;;;4865235;29;20195;-78
2023/04/06 10:50:42;;;;;;;13.30;12.20;;;14.60;88.80;;;;;;4866466;29;20244;-78
2023/04/06 10:53:09;;;;;;;12.70;11.70;;;14.30;87.10;;;;;;4864057;29;20215;-78
2023/04/06 10:55:40;;;;;;;12.27;11.17;;;14.10;89.10;;;;;;4864652;29;20203;-78
2023/04/06 10:58:08;;;;;;;11.60;10.70;;;14.10;90.00;;;;;;4862162;29;20222;-77
2023/04/06 11:00:35;;;;;;;11.83;10.93;;;14.20;90.40;;;;;;4868476;29;20270;-78
2023/04/06 11:03:03;;;;;;;12.10;11.10;;;14.20;89.20;;;;;;4867392;29;20268;-78
2023/04/06 11:05:31;;;;;;;12.27;11.17;;;14.20;89.70;;;;;;4867601;29;20683;-78
2023/04/06 11:07:58;;;;;;;11.93;10.93;;;14.20;88.60;;;;;;4864673;29;20565;-78
2023/04/06 11:10:24;;;;;;;12.43;11.10;;;14.00;89.60;;;;;;4866468;29;20318;-78
2023/04/06 11:12:55;;;;;;;11.00;10.10;;;14.00;88.20;;;;;;4866743;29;20210;-78
2023/04/06 11:15:22;;;;;;;10.90;9.97;;;14.10;86.90;;;;;;4866982;29;20753;-78
2023/04/06 11:17:49;;;;;;;11.40;10.40;;;14.10;87.90;;;;;;4864153;29;20216;-79
2023/04/06 11:20:19;;;;;;;11.30;10.30;;;14.00;87.10;;;;;;4866150;29;20612;-77
2023/04/06 11:22:50;;;;;;;11.23;10.33;;;13.90;87.30;;;;;;4867325;29;20591;-78
2023/04/06 11:25:17;;;;;;;11.43;10.40;;;13.60;86.30;;;;;;4866679;29;20254;-77
2023/04/06 11:27:45;;;;;;;11.83;10.73;;;13.50;88.40;;;;;;4874858;29;20218;-78
2023/04/06 11:30:12;;;;;;;11.53;10.50;;;13.60;88.60;;;;;;4879550;29;20203;-78
2023/04/06 11:32:42;;;;;;;11.40;10.30;;;13.50;87.60;;;;;;4879350;29;20258;-77
2023/04/06 11:35:11;;;;;;;11.13;10.23;;;13.50;85.80;;;;;;4872450;29;20271;-78
2023/04/06 11:37:39;;;;;;;11.07;10.17;;;13.40;88.30;;;;;;4871259;29;20205;-78
2023/04/06 11:40:09;;;;;;;10.97;10.07;;;13.30;85.90;;;;;;4864729;29;20220;-78
2023/04/06 11:42:36;;;;;;;10.60;9.67;;;13.20;86.50;;;;;;4865095;29;20318;-77
2023/04/06 11:45:03;;;;;;;10.53;9.63;;;13.50;89.00;;;;;;4863483;29;20229;-80
2023/04/06 11:47:33;;;;;;;10.13;9.33;;;13.70;88.00;;;;;;4865000;29;20644;-77
2023/04/06 11:50:07;;;;;;;9.80;9.10;;;13.80;90.10;;;;;;4875010;29;20275;-73
2023/04/06 11:52:34;;;;;;;10.27;9.37;;;14.00;90.40;;;;;;4867586;29;20715;-78
2023/04/06 11:55:12;;;;;;;10.67;9.67;;;14.10;87.60;;;;;;4864096;29;20295;-77
2023/04/06 11:57:39;;;;;;;11.60;10.60;;;14.10;86.60;;;;;;4864317;29;20212;-76
2023/04/06 12:00:08;;;;;;;11.03;10.17;;;14.00;81.50;;;;;;4866740;29;20667;-77
2023/04/06 12:02:34;;;;;;;10.67;9.77;;;13.80;83.40;;;;;;4868668;29;20235;-77
2023/04/06 12:05:01;;;;;;;10.57;9.60;;;13.60;82.60;;;;;;4865557;29;20206;-77
2023/04/06 12:07:29;;;;;;;10.20;9.40;;;13.60;85.50;;;;;;4872073;29;20234;-77
2023/04/06 12:09:56;;;;;;;10.57;9.60;;;13.80;86.80;;;;;;4862788;29;20549;-76
2023/04/06 12:12:24;;;;;;;10.40;9.60;;;14.00;87.30;;;;;;4864475;29;20310;-77
2023/04/06 12:14:51;;;;;;;9.90;9.10;;;14.10;86.80;;;;;;4867798;29;20215;-77
2023/04/06 12:17:18;;;;;;;10.43;9.53;;;14.20;85.50;;;;;;4868633;29;20673;-77
2023/04/06 12:19:45;;;;;;;10.27;9.47;;;14.20;85.60;;;;;;4864421;29;20253;-77
2023/04/06 12:22:12;;;;;;;10.10;9.30;;;14.20;84.50;;;;;;4865552;29;20223;-77
2023/04/06 12:24:39;;;;;;;9.80;8.90;;;14.30;83.60;;;;;;4866005;29;20243;-77
2023/04/06 12:27:06;;;;;;;10.40;9.50;;;14.30;84.20;;;;;;4861249;29;20293;-76
2023/04/06 12:29:34;;;;;;;9.47;8.77;;;14.30;83.90;;;;;;4864661;29;20273;-77
2023/04/06 12:32:01;;;;;;;9.87;8.97;;;14.30;83.80;;;;;;4867403;29;20223;-77
2023/04/06 12:34:28;;;;;;;9.87;8.97;;;14.30;83.70;;;;;;4868181;29;20205;-77
2023/04/06 12:36:55;;;;;;;9.33;8.63;;;14.40;81.90;;;;;;4864394;29;20262;-76
2023/04/06 12:39:22;;;;;;;10.03;9.23;;;14.30;82.70;;;;;;4864561;29;20694;-77
2023/04/06 12:41:49;;;;;;;9.53;8.83;;;14.10;82.00;;;;;;4864191;29;20323;-77
2023/04/06 12:44:16;;;;;;;9.97;9.17;;;14.00;83.80;;;;;;4863774;29;20200;-77
2023/04/06 12:46:45;;;;;;;10.37;9.37;;;14.00;83.70;;;;;;4861755;29;20755;-77
2023/04/06 12:49:11;;;;;;;9.50;8.80;;;14.10;83.50;;;;;;4860415;29;20252;-77
2023/04/06 12:51:38;;;;;;;9.90;9.10;;;14.00;84.70;;;;;;4867714;29;20309;-77
2023/04/06 12:54:05;;;;;;;10.97;9.97;;;14.10;85.90;;;;;;4863584;29;20292;-77
2023/04/06 12:56:32;;;;;;;10.27;9.47;;;14.10;83.60;;;;;;4864310;29;20211;-77
2023/04/06 12:58:59;;;;;;;9.90;9.10;;;14.00;83.10;;;;;;4864670;29;20233;-77
2023/04/06 13:01:27;;;;;;;9.60;8.70;;;13.90;81.90;;;;;;4878646;29;20666;-77
2023/04/06 13:03:56;;;;;;;9.77;8.83;;;13.80;82.80;;;;;;4879019;29;20618;-77
2023/04/06 13:06:27;;;;;;;8.87;8.17;;;13.70;84.10;;;;;;4879302;29;20273;-77
2023/04/06 13:08:54;;;;;;;9.67;8.87;;;13.70;83.20;;;;;;4878495;29;20206;-76
2023/04/06 13:11:23;;;;;;;9.67;8.97;;;13.70;82.20;;;;;;4871989;29;20225;-76
2023/04/06 13:13:50;;;;;;;9.27;8.47;;;13.60;82.90;;;;;;4863477;29;20207;-77
2023/04/06 13:16:17;;;;;;;9.20;8.50;;;13.80;82.90;;;;;;4862947;29;20232;-76
2023/04/06 13:18:44;;;;;;;9.40;8.70;;;13.80;83.70;;;;;;4860918;29;20248;-76
2023/04/06 13:21:15;;;;;;;9.83;9.00;;;13.90;82.20;;;;;;4865869;29;20309;-76
2023/04/06 13:23:42;;;;;;;9.67;8.97;;;14.00;83.50;;;;;;4867231;29;20261;-77
2023/04/06 13:26:09;;;;;;;10.20;9.30;;;14.10;82.90;;;;;;4874299;29;20211;-76
2023/04/06 13:28:38;;;;;;;10.13;9.33;;;14.10;82.70;;;;;;4863349;29;20668;-76
2023/04/06 13:31:06;;;;;;;9.87;9.07;;;13.90;82.10;;;;;;4863040;29;20317;-76
2023/04/06 13:33:32;;;;;;;10.00;9.10;;;13.70;81.60;;;;;;4863689;29;20463;-76
2023/04/06 13:36:00;;;;;;;9.87;9.07;;;13.70;81.50;;;;;;4861224;29;20212;-76
2023/04/06 13:38:28;;;;;;;9.43;8.63;;;13.70;80.90;;;;;;4869576;29;20212;-77
2023/04/06 13:40:55;;;;;;;9.00;8.30;;;13.80;80.60;;;;;;4869188;29;20229;-84
2023/04/06 13:43:22;;;;;;;9.20;8.50;;;13.80;78.70;;;;;;4883510;29;20206;-81
2023/04/06 13:45:54;;;;;;;8.50;7.90;;;13.90;79.00;;;;;;4897992;29;20235;-79
2023/04/06 13:48:21;;;;;;;8.77;8.17;;;14.10;79.80;;;;;;4866981;29;20218;-77
2023/04/06 13:50:48;;;;;;;9.27;8.47;;;14.30;78.50;;;;;;4869697;29;20233;-78
2023/04/06 13:53:15;;;;;;;8.50;7.83;;;14.30;76.80;;;;;;4869077;29;20202;-79
2023/04/06 13:55:43;;;;;;;8.77;8.17;;;14.50;77.90;;;;;;4872946;29;20207;-78
2023/04/06 13:58:10;;;;;;;8.97;8.07;;;14.80;77.40;;;;;;4876182;29;20204;-78
2023/04/06 14:00:37;;;;;;;9.07;8.37;;;14.80;76.50;;;;;;4874559;29;20233;-78
2023/04/06 14:03:05;;;;;;;9.07;8.37;;;14.90;76.40;;;;;;4873295;29;20208;-78
2023/04/06 14:05:32;;;;;;;9.00;8.30;;;15.00;76.70;;;;;;4881129;29;20218;-79
2023/04/06 14:07:59;;;;;;;9.23;8.53;;;15.00;76.50;;;;;;4885045;29;20208;-78
2023/04/06 14:10:27;;;;;;;8.60;8.00;;;15.00;75.30;;;;;;4878525;29;20252;-76
2023/04/06 14:12:56;;;;;;;8.50;7.80;;;15.20;76.40;;;;;;4876237;29;20210;-76
2023/04/06 14:15:23;;;;;;;8.07;7.47;;;15.20;75.40;;;;;;4878430;29;20204;-76
2023/04/06 14:17:51;;;;;;;7.97;7.43;;;15.40;73.50;;;;;;4877641;29;20280;-76
2023/04/06 14:20:18;;;;;;;8.47;7.67;;;15.40;71.50;;;;;;4876770;29;20313;-76
2023/04/06 14:22:44;;;;;;;7.50;7.00;;;15.50;69.90;;;;;;4877328;29;20231;-76
2023/04/06 14:25:12;;;;;;;7.07;6.47;;;15.60;72.80;;;;;;4879276;29;20711;-78
2023/04/06 14:27:39;;;;;;;5.77;5.30;;;15.60;72.90;;;;;;4878188;29;20218;-79
2023/04/06 14:30:09;;;;;;;5.70;5.30;;;15.70;74.00;;;;;;4877072;29;20234;-78
2023/04/06 14:32:36;;;;;;;5.77;5.27;;;15.70;75.60;;;;;;4879908;29;20227;-76
2023/04/06 14:35:03;;;;;;;5.57;4.77;;;15.60;76.90;;;;;;4881827;29;20436;-77
2023/04/06 14:37:30;;;;;;;4.33;3.93;;;15.60;76.50;;;;;;4879223;29;20736;-78
2023/04/06 14:39:56;;;;;;;6.73;6.13;;;15.50;77.40;;;;;;4880051;29;20308;-78
2023/04/06 14:42:23;;;;;;;7.43;6.83;;;15.50;77.80;;;;;;4880966;29;20658;-78